Whitburn, United Kingdom
Current Conditions -  °F | °C
As of 4:20 PM on Sunday 25 Jan 2015 (Local Time) from EGPH Reporting Station
Broken Clouds Broken Clouds  
Wind Chill: 50°   Ceiling: 1500
Heat Index: 50°   Visibility: 6mi
Dew Point: 46°   Wind: 21mph
Humidity: 87%   Direction: 230°SW
Pressure: 30"   Gusts: NA
Location:  55.87°N, 3.68°W
Report Text: EGPH 251620Z 23018KT 9999 BKN015 10/08 Q1016
Loading
Personal Weather Stations






























Interactive Weather Map New forecast layout! Learn more

10-Day Weather Forecast

Advertisements
Track Severe Weather on mobile